Terminal Aerodrome Forecast
Issued by NWS

Home | Current Version | Previous Version | Text Only | Print | Product List | Glossary Off
Versions: 1 2 3 4 5 6 7 8 9 10 11 12 13

000
FTUS42 KMHX 201100
TAFOAJ
TAF
KOAJ 201121Z 2012/2112 03005KT P6SM VCSH SCT050 BKN100
     FM201500 04006KT 6SM -RA SCT015 OVC040
      TEMPO 2020/2024 BKN020
     FM210000 01004KT P6SM BKN040
      AMD LTD TO CLD VIS AND WIND=

USA.gov is the U.S. government's official web portal to all federal, state and local government web resources and services.